createdAt,value
2023-02-04T00:00:31.046Z,8.00
2023-02-04T00:03:17.413Z,8.20
2023-02-04T00:06:03.507Z,8.30
2023-02-04T00:08:49.258Z,8.40
2023-02-04T00:11:34.977Z,8.60
2023-02-04T00:14:20.667Z,8.30
2023-02-04T00:17:08.250Z,8.30
2023-02-04T00:19:54.069Z,7.70
2023-02-04T00:22:40.217Z,7.20
2023-02-04T00:25:26.439Z,7.00
2023-02-04T00:28:12.535Z,7.40
2023-02-04T00:30:58.755Z,7.40
2023-02-04T00:33:44.768Z,7.50
2023-02-04T00:36:30.562Z,7.50
2023-02-04T00:39:16.150Z,7.60
2023-02-04T00:42:02.128Z,7.30
2023-02-04T00:44:48.725Z,6.90
2023-02-04T00:47:34.383Z,7.00
2023-02-04T00:50:20.449Z,6.90
2023-02-04T00:53:07.502Z,6.20
2023-02-04T00:55:53.560Z,6.20
2023-02-04T00:58:40.381Z,6.10
2023-02-04T01:01:26.059Z,6.30
2023-02-04T01:04:11.995Z,6.80
2023-02-04T01:06:58.028Z,7.20
2023-02-04T01:09:44.560Z,7.00
2023-02-04T01:12:30.708Z,7.20
2023-02-04T01:15:16.993Z,7.10
2023-02-04T01:18:02.874Z,7.00
2023-02-04T01:20:49.121Z,6.80
2023-02-04T01:23:37.075Z,7.00
2023-02-04T01:26:23.478Z,6.40
2023-02-04T01:29:09.857Z,6.50
2023-02-04T01:31:55.994Z,6.60
2023-02-04T01:34:43.268Z,6.70
2023-02-04T01:37:29.201Z,6.30
2023-02-04T01:40:15.448Z,6.10
2023-02-04T01:43:01.757Z,6.00
2023-02-04T01:45:47.747Z,6.50
2023-02-04T01:48:34.036Z,6.20
2023-02-04T01:51:28.484Z,6.60
2023-02-04T01:54:17.021Z,6.50
2023-02-04T01:57:04.301Z,6.30
2023-02-04T01:59:54.988Z,6.00
2023-02-04T02:02:42.363Z,6.20
2023-02-04T02:05:41.035Z,6.00
2023-02-04T02:08:26.680Z,6.30
2023-02-04T02:11:12.448Z,6.00
2023-02-04T02:13:59.036Z,6.20
2023-02-04T02:16:45.053Z,6.30
2023-02-04T02:19:36.086Z,6.50
2023-02-04T02:22:35.505Z,6.10
2023-02-04T02:25:21.942Z,5.90
2023-02-04T02:28:15.048Z,6.20
2023-02-04T02:31:01.329Z,6.50
2023-02-04T02:33:47.462Z,6.50
2023-02-04T02:36:35.539Z,6.10
2023-02-04T02:39:22.228Z,6.30
2023-02-04T02:42:09.812Z,6.50
2023-02-04T02:44:56.033Z,6.70
2023-02-04T02:47:42.256Z,6.90
2023-02-04T02:50:31.390Z,6.90
2023-02-04T02:53:20.664Z,7.00
2023-02-04T02:56:07.895Z,6.90
2023-02-04T02:58:54.118Z,6.60
2023-02-04T03:01:40.429Z,6.70
2023-02-04T03:04:30.116Z,7.10
2023-02-04T03:07:16.503Z,6.90
2023-02-04T03:10:02.991Z,6.50
2023-02-04T03:12:50.213Z,6.60
2023-02-04T03:15:36.537Z,6.30
2023-02-04T03:18:23.263Z,6.50
2023-02-04T03:21:09.182Z,6.90
2023-02-04T03:23:57.026Z,6.50
2023-02-04T03:26:43.426Z,7.00
2023-02-04T03:29:30.984Z,6.80
2023-02-04T03:32:17.507Z,6.70
2023-02-04T03:35:03.640Z,6.60
2023-02-04T03:37:49.808Z,6.60
2023-02-04T03:40:36.101Z,6.60
2023-02-04T03:43:22.489Z,6.30
2023-02-04T03:46:08.475Z,6.40
2023-02-04T03:48:54.381Z,6.50
2023-02-04T03:51:40.394Z,6.60
2023-02-04T03:54:26.592Z,6.60
2023-02-04T03:57:13.233Z,6.50
2023-02-04T03:59:59.400Z,7.10
2023-02-04T04:02:45.017Z,6.40
2023-02-04T04:09:14.801Z,6.40
2023-02-04T04:12:01.031Z,6.90
2023-02-04T04:14:46.426Z,7.20
2023-02-04T04:17:32.458Z,7.30
2023-02-04T04:20:18.120Z,7.10
2023-02-04T04:23:03.591Z,6.40
2023-02-04T04:25:49.351Z,6.60
2023-02-04T04:28:35.317Z,7.00
2023-02-04T04:31:20.851Z,7.20
2023-02-04T04:34:06.860Z,6.40
2023-02-04T04:36:52.231Z,6.70
2023-02-04T04:39:37.836Z,6.90
2023-02-04T04:42:23.322Z,7.00
2023-02-04T04:45:10.360Z,7.20
2023-02-04T04:47:55.937Z,6.60
2023-02-04T04:50:41.748Z,6.70
2023-02-04T04:53:27.639Z,7.00
2023-02-04T04:56:13.024Z,7.00
2023-02-04T04:58:58.390Z,7.00
2023-02-04T05:01:44.356Z,7.00
2023-02-04T05:04:30.163Z,7.30
2023-02-04T05:07:15.982Z,6.60
2023-02-04T05:10:01.461Z,7.00
2023-02-04T05:12:47.214Z,7.20
2023-02-04T05:15:32.982Z,7.30
2023-02-04T05:18:18.616Z,7.40
2023-02-04T05:21:04.685Z,8.10
2023-02-04T05:23:50.455Z,7.30
2023-02-04T05:26:35.955Z,7.20
2023-02-04T05:29:21.604Z,7.20
2023-02-04T05:32:07.315Z,7.20
2023-02-04T05:34:53.330Z,7.30
2023-02-04T05:37:39.867Z,7.40
2023-02-04T05:40:25.499Z,7.40
2023-02-04T05:43:11.014Z,7.50
2023-02-04T05:45:57.921Z,7.70
2023-02-04T05:48:43.980Z,7.60
2023-02-04T05:51:29.718Z,7.60
2023-02-04T05:54:19.553Z,7.20
2023-02-04T05:57:05.733Z,6.90
2023-02-04T05:59:51.544Z,6.70
2023-02-04T06:02:37.500Z,7.10
2023-02-04T06:05:23.341Z,7.30
2023-02-04T06:08:11.255Z,6.70
2023-02-04T06:10:57.114Z,6.80
2023-02-04T06:13:43.259Z,7.30
2023-02-04T06:16:29.407Z,7.60
2023-02-04T06:19:15.165Z,7.40
2023-02-04T06:22:00.805Z,7.30
2023-02-04T06:24:47.522Z,7.60
2023-02-04T06:27:33.612Z,7.30
2023-02-04T06:30:19.868Z,7.30
2023-02-04T06:33:05.426Z,7.30
2023-02-04T06:35:51.510Z,7.10
2023-02-04T06:38:38.825Z,7.20
2023-02-04T06:41:24.933Z,7.50
2023-02-04T06:44:10.931Z,7.30
2023-02-04T06:46:56.996Z,7.10
2023-02-04T06:49:42.978Z,6.90
2023-02-04T06:52:29.515Z,7.10
2023-02-04T06:55:18.357Z,7.30
2023-02-04T06:58:04.608Z,7.30
2023-02-04T07:00:50.412Z,7.10
2023-02-04T07:03:36.334Z,6.90
2023-02-04T07:06:22.503Z,7.10
2023-02-04T07:09:08.295Z,7.40
2023-02-04T07:11:54.193Z,7.60
2023-02-04T07:14:40.396Z,7.20
2023-02-04T07:17:26.776Z,6.60
2023-02-04T07:20:13.413Z,6.20
2023-02-04T07:22:59.300Z,6.30
2023-02-04T07:25:45.501Z,7.40
2023-02-04T07:28:31.945Z,8.10
2023-02-04T07:31:17.920Z,8.20
2023-02-04T07:34:04.152Z,8.70
2023-02-04T07:36:50.508Z,8.90
2023-02-04T07:39:36.605Z,9.60
2023-02-04T07:42:23.216Z,10.70
2023-02-04T07:45:18.126Z,11.90
2023-02-04T07:48:04.331Z,12.50
2023-02-04T07:50:50.881Z,12.70
2023-02-04T07:53:37.386Z,12.60
2023-02-04T07:56:24.035Z,12.50
2023-02-04T07:59:10.453Z,11.20
2023-02-04T08:01:56.645Z,10.30
2023-02-04T08:04:43.201Z,10.60
2023-02-04T08:07:29.512Z,11.50
2023-02-04T08:10:15.756Z,12.30
2023-02-04T08:13:02.452Z,11.80
2023-02-04T08:15:49.247Z,11.10
2023-02-04T08:18:35.494Z,11.70
2023-02-04T08:21:21.714Z,13.90
2023-02-04T08:24:08.166Z,15.90
2023-02-04T08:26:53.927Z,15.90
2023-02-04T08:29:39.904Z,13.10
2023-02-04T08:32:28.259Z,12.50
2023-02-04T08:35:15.378Z,14.00
2023-02-04T08:38:02.523Z,14.90
2023-02-04T08:40:48.558Z,13.40
2023-02-04T08:43:34.593Z,14.20
2023-02-04T08:46:21.497Z,13.80
2023-02-04T08:49:17.642Z,13.90
2023-02-04T08:52:06.311Z,13.90
2023-02-04T08:54:53.027Z,14.30
2023-02-04T08:57:39.900Z,14.80
2023-02-04T09:00:26.065Z,14.60
2023-02-04T09:03:12.235Z,15.40
2023-02-04T09:05:58.439Z,15.20
2023-02-04T09:08:44.320Z,14.80
2023-02-04T09:11:30.405Z,16.70
2023-02-04T09:14:16.550Z,15.40
2023-02-04T09:18:05.765Z,15.80
2023-02-04T09:20:52.852Z,21.40
2023-02-04T09:23:39.944Z,20.70
2023-02-04T09:26:26.803Z,19.80
2023-02-04T09:29:12.663Z,22.30
2023-02-04T09:31:59.914Z,21.00
2023-02-04T09:34:46.343Z,22.70
2023-02-04T09:40:37.046Z,21.50
2023-02-04T09:43:26.808Z,19.30
2023-02-04T09:46:23.227Z,17.60
2023-02-04T09:49:11.420Z,19.60
2023-02-04T09:51:58.342Z,19.50
2023-02-04T09:54:46.892Z,18.80
2023-02-04T09:57:33.988Z,19.50
2023-02-04T10:00:23.035Z,19.30
2023-02-04T10:03:17.291Z,19.40
2023-02-04T10:06:03.704Z,21.00
2023-02-04T10:08:51.278Z,20.60
2023-02-04T10:11:40.956Z,21.60
2023-02-04T10:14:27.139Z,24.90
2023-02-04T10:17:15.580Z,25.60
2023-02-04T10:20:01.855Z,26.80
2023-02-04T10:22:50.331Z,23.50
2023-02-04T10:25:36.682Z,24.70
2023-02-04T10:28:35.463Z,23.40
2023-02-04T10:31:33.860Z,19.90
2023-02-04T10:34:24.033Z,18.40
2023-02-04T10:37:23.228Z,15.70
2023-02-04T10:40:28.613Z,15.20
2023-02-04T10:43:22.697Z,14.80
2023-02-04T10:46:09.336Z,15.40
2023-02-04T10:48:55.983Z,15.90
2023-02-04T10:51:42.078Z,15.80
2023-02-04T10:54:38.860Z,14.50
2023-02-04T10:57:27.709Z,14.60
2023-02-04T11:00:22.541Z,14.70
2023-02-04T11:03:16.592Z,15.00
2023-02-04T11:06:02.643Z,15.50
2023-02-04T11:08:50.223Z,15.70
2023-02-04T11:11:37.208Z,15.10
2023-02-04T11:14:28.866Z,14.90
2023-02-04T11:17:21.132Z,15.10
2023-02-04T11:20:31.597Z,14.60
2023-02-04T11:23:27.233Z,15.10
2023-02-04T11:26:14.797Z,14.40
2023-02-04T11:29:01.180Z,14.10
2023-02-04T11:31:50.572Z,14.20
2023-02-04T11:34:49.649Z,14.20
2023-02-04T11:37:41.846Z,14.80
2023-02-04T11:40:36.979Z,15.00
2023-02-04T11:43:23.083Z,14.60
2023-02-04T11:46:17.232Z,14.60
2023-02-04T11:49:03.928Z,15.10
2023-02-04T11:51:50.936Z,14.60
2023-02-04T11:54:37.094Z,14.50
2023-02-04T11:57:23.237Z,14.80
2023-02-04T12:00:18.338Z,14.80
2023-02-04T12:03:08.623Z,15.20
2023-02-04T12:05:58.598Z,14.60
2023-02-04T12:08:44.691Z,14.50
2023-02-04T12:11:31.563Z,14.90
2023-02-04T12:14:19.040Z,15.30
2023-02-04T12:17:19.500Z,14.80
2023-02-04T12:20:06.440Z,15.00
2023-02-04T12:22:53.404Z,15.30
2023-02-04T12:25:39.676Z,15.50
2023-02-04T12:28:30.705Z,15.60
2023-02-04T12:31:17.186Z,15.80
2023-02-04T12:34:03.445Z,15.20
2023-02-04T12:36:49.786Z,15.20
2023-02-04T12:39:35.976Z,15.60
2023-02-04T12:42:22.273Z,15.40
2023-02-04T12:45:09.016Z,15.70
2023-02-04T12:47:55.146Z,15.50
2023-02-04T12:50:42.789Z,15.60
2023-02-04T12:53:29.586Z,15.90
2023-02-04T12:56:16.125Z,15.90
2023-02-04T12:59:02.365Z,15.90
2023-02-04T13:01:48.220Z,16.10
2023-02-04T13:04:34.470Z,16.20
2023-02-04T13:07:21.872Z,16.30
2023-02-04T13:10:09.945Z,16.30
2023-02-04T13:12:55.869Z,16.20
2023-02-04T13:15:42.073Z,16.20
2023-02-04T13:18:29.335Z,16.10
2023-02-04T13:21:16.140Z,16.00
2023-02-04T13:24:02.160Z,16.20
2023-02-04T13:26:48.234Z,16.30
2023-02-04T13:29:34.468Z,16.30
2023-02-04T13:32:20.495Z,16.40
2023-02-04T13:35:06.421Z,16.30
2023-02-04T13:37:52.718Z,16.40
2023-02-04T13:40:39.439Z,16.40
2023-02-04T13:43:25.944Z,16.40
2023-02-04T13:46:12.513Z,18.20
2023-02-04T13:48:59.039Z,16.50
2023-02-04T13:51:45.117Z,16.40
2023-02-04T13:54:31.199Z,16.50
2023-02-04T13:57:17.917Z,16.50
2023-02-04T14:00:05.324Z,16.40
2023-02-04T14:02:58.237Z,16.30
2023-02-04T14:05:44.074Z,16.30
2023-02-04T14:08:30.205Z,16.40
2023-02-04T14:11:16.523Z,16.50
2023-02-04T14:14:02.701Z,16.50
2023-02-04T14:16:54.752Z,16.60
2023-02-04T14:19:41.111Z,16.50
2023-02-04T14:22:27.148Z,16.40
2023-02-04T14:25:13.821Z,16.50
2023-02-04T14:28:00.453Z,16.10
2023-02-04T14:30:46.901Z,15.90
2023-02-04T14:33:32.988Z,16.00
2023-02-04T14:36:19.312Z,16.10
2023-02-04T14:39:05.426Z,16.10
2023-02-04T14:41:51.368Z,16.20
2023-02-04T14:44:38.640Z,14.90
2023-02-04T14:47:26.301Z,16.00
2023-02-04T14:50:16.410Z,16.00
2023-02-04T14:53:03.322Z,16.20
2023-02-04T14:55:50.052Z,16.10
2023-02-04T14:58:36.777Z,16.10
2023-02-04T15:01:23.243Z,16.30
2023-02-04T15:04:12.104Z,16.40
2023-02-04T15:06:58.668Z,16.30
2023-02-04T15:09:45.019Z,16.60
2023-02-04T15:12:31.338Z,16.50
2023-02-04T15:15:17.980Z,16.30
2023-02-04T15:18:04.300Z,16.20
2023-02-04T15:20:50.818Z,16.00
2023-02-04T15:23:38.147Z,15.80
2023-02-04T15:26:25.326Z,16.00
2023-02-04T15:29:12.211Z,16.00
2023-02-04T15:31:59.092Z,16.20
2023-02-04T15:34:45.184Z,16.20
2023-02-04T15:37:31.298Z,15.90
2023-02-04T15:40:18.196Z,15.80
2023-02-04T15:43:04.311Z,15.60
2023-02-04T15:45:50.181Z,15.70
2023-02-04T15:48:36.386Z,15.60
2023-02-04T15:51:22.618Z,15.50
2023-02-04T15:54:08.280Z,15.40
2023-02-04T15:56:54.242Z,15.20
2023-02-04T15:59:40.559Z,15.10
2023-02-04T16:02:27.904Z,15.20
2023-02-04T16:05:14.418Z,15.10
2023-02-04T16:08:00.668Z,15.10
2023-02-04T16:10:47.800Z,15.00
2023-02-04T16:13:34.652Z,15.00
2023-02-04T16:16:22.076Z,15.00
2023-02-04T16:19:08.250Z,15.00
2023-02-04T16:21:54.537Z,15.00
2023-02-04T16:24:41.535Z,14.80
2023-02-04T16:27:27.620Z,14.70
2023-02-04T16:30:14.475Z,14.50
2023-02-04T16:33:00.668Z,14.50
2023-02-04T16:36:04.806Z,14.40
2023-02-04T16:38:51.088Z,14.30
2023-02-04T16:41:37.381Z,14.60
2023-02-04T16:44:23.856Z,14.90
2023-02-04T16:47:10.694Z,15.00
2023-02-04T16:50:01.209Z,14.50
2023-02-04T16:52:47.576Z,13.80
2023-02-04T16:55:35.387Z,13.80
2023-02-04T16:58:23.420Z,13.60
2023-02-04T17:01:09.630Z,13.20
2023-02-04T17:03:58.642Z,13.00
2023-02-04T17:06:44.925Z,12.80
2023-02-04T17:09:31.613Z,12.70
2023-02-04T17:12:17.500Z,12.40
2023-02-04T17:15:04.166Z,12.20
2023-02-04T17:17:50.098Z,12.10
2023-02-04T17:20:36.858Z,11.90
2023-02-04T17:23:22.995Z,11.70
2023-02-04T17:26:09.171Z,11.50
2023-02-04T17:28:56.001Z,11.40
2023-02-04T17:31:44.854Z,11.20
2023-02-04T17:34:31.052Z,11.00
2023-02-04T17:37:17.017Z,10.70
2023-02-04T17:40:03.548Z,10.50
2023-02-04T17:42:49.543Z,10.30
2023-02-04T17:45:36.275Z,10.00
2023-02-04T17:48:22.574Z,10.00
2023-02-04T17:51:09.159Z,9.90
2023-02-04T17:53:55.421Z,10.00
2023-02-04T17:56:42.000Z,9.80
2023-02-04T17:59:28.537Z,9.70
2023-02-04T18:02:35.050Z,9.70
2023-02-04T18:05:24.902Z,9.80
2023-02-04T18:08:31.845Z,9.70
2023-02-04T18:11:22.783Z,9.80
2023-02-04T18:14:25.164Z,9.60
2023-02-04T18:17:14.473Z,9.60
2023-02-04T18:20:02.781Z,9.50
2023-02-04T18:22:55.728Z,9.60
2023-02-04T18:25:42.160Z,9.90
2023-02-04T18:28:28.389Z,10.20
2023-02-04T18:31:34.247Z,10.50
2023-02-04T18:34:45.438Z,10.40
2023-02-04T18:37:46.712Z,10.30
2023-02-04T18:40:33.722Z,10.20
2023-02-04T18:43:23.727Z,9.60
2023-02-04T18:46:27.669Z,9.20
2023-02-04T18:49:19.569Z,8.80
2023-02-04T18:52:19.545Z,8.80
2023-02-04T18:55:26.365Z,8.90
2023-02-04T18:58:27.502Z,8.80
2023-02-04T19:01:13.236Z,8.40
2023-02-04T19:04:01.390Z,8.20
2023-02-04T19:06:50.239Z,8.00
2023-02-04T19:09:37.468Z,7.50
2023-02-04T19:12:24.456Z,7.10
2023-02-04T19:15:36.638Z,7.00
2023-02-04T19:18:26.772Z,7.00
2023-02-04T19:21:27.828Z,6.90
2023-02-04T19:24:21.725Z,7.00
2023-02-04T19:27:43.209Z,7.00
2023-02-04T19:30:29.493Z,7.00
2023-02-04T19:33:20.256Z,7.10
2023-02-04T19:36:38.812Z,7.00
2023-02-04T19:39:38.630Z,6.90
2023-02-04T19:42:29.462Z,6.90
2023-02-04T19:45:26.112Z,6.90
2023-02-04T19:48:35.325Z,6.90
2023-02-04T19:51:29.389Z,6.90
2023-02-04T19:54:23.218Z,6.90
2023-02-04T19:57:24.502Z,7.00
2023-02-04T20:00:39.038Z,7.00
2023-02-04T20:03:31.024Z,7.00
2023-02-04T20:06:35.823Z,7.20
2023-02-04T20:09:29.701Z,7.40
2023-02-04T20:12:17.727Z,7.40
2023-02-04T20:15:21.016Z,7.30
2023-02-04T20:18:19.921Z,7.30
2023-02-04T20:21:11.538Z,7.30
2023-02-04T20:23:57.784Z,7.40
2023-02-04T20:26:44.245Z,7.40
2023-02-04T20:29:29.790Z,7.40
2023-02-04T20:32:26.590Z,7.70
2023-02-04T20:35:15.423Z,7.90
2023-02-04T20:38:11.596Z,7.60
2023-02-04T20:40:57.862Z,7.30
2023-02-04T20:43:44.223Z,7.40
2023-02-04T20:46:31.493Z,7.20
2023-02-04T20:49:25.456Z,7.40
2023-02-04T20:52:39.931Z,7.60
2023-02-04T20:55:30.403Z,7.50
2023-02-04T20:58:34.134Z,7.30
2023-02-04T21:01:36.999Z,7.40
2023-02-04T21:04:51.939Z,7.50
2023-02-04T21:07:38.028Z,7.60
2023-02-04T21:10:24.049Z,7.80
2023-02-04T21:13:09.643Z,7.60
2023-02-04T21:15:55.644Z,7.50
2023-02-04T21:18:41.823Z,7.60
2023-02-04T21:21:28.951Z,7.60
2023-02-04T21:24:15.010Z,7.70
2023-02-04T21:27:00.755Z,7.60
2023-02-04T21:30:05.598Z,7.40
2023-02-04T21:32:51.192Z,7.30
2023-02-04T21:35:37.588Z,7.20
2023-02-04T21:38:23.005Z,7.10
2023-02-04T21:41:09.048Z,7.20
2023-02-04T21:43:55.206Z,7.40
2023-02-04T21:46:40.761Z,7.40
2023-02-04T21:49:26.744Z,7.50
2023-02-04T21:52:13.305Z,7.50
2023-02-04T21:54:59.454Z,7.50
2023-02-04T21:57:46.584Z,7.80
2023-02-04T22:00:32.368Z,7.40
2023-02-04T22:03:18.495Z,7.30
2023-02-04T22:06:04.958Z,7.30
2023-02-04T22:08:51.115Z,7.20
2023-02-04T22:11:36.988Z,7.30
2023-02-04T22:14:22.888Z,7.80
2023-02-04T22:17:09.096Z,7.80
2023-02-04T22:19:54.865Z,8.20
2023-02-04T22:22:40.657Z,8.40
2023-02-04T22:25:26.989Z,8.60
2023-02-04T22:28:13.156Z,8.20
2023-02-04T22:30:59.439Z,7.90
2023-02-04T22:33:45.581Z,8.30
2023-02-04T22:36:31.183Z,8.60
2023-02-04T22:39:17.083Z,8.70
2023-02-04T22:42:03.404Z,8.70
2023-02-04T22:44:49.452Z,8.70
2023-02-04T22:47:35.130Z,8.60
2023-02-04T22:50:21.440Z,8.40
2023-02-04T22:53:07.499Z,8.20
2023-02-04T22:55:54.201Z,7.90
2023-02-04T22:58:40.240Z,8.10
2023-02-04T23:01:25.958Z,7.80
2023-02-04T23:04:11.970Z,7.80
2023-02-04T23:06:58.374Z,7.80
2023-02-04T23:09:45.186Z,7.70
2023-02-04T23:12:31.068Z,6.50
2023-02-04T23:15:17.422Z,6.50
2023-02-04T23:18:03.594Z,7.00
2023-02-04T23:20:49.791Z,7.20
2023-02-04T23:23:36.002Z,7.20
2023-02-04T23:26:22.488Z,7.30
2023-02-04T23:29:08.514Z,7.30
2023-02-04T23:31:55.669Z,6.90
2023-02-04T23:34:41.589Z,6.50
2023-02-04T23:37:27.730Z,6.80
2023-02-04T23:40:13.802Z,7.10
2023-02-04T23:42:59.514Z,7.00
2023-02-04T23:45:46.808Z,6.90
2023-02-04T23:48:32.629Z,6.40
2023-02-04T23:51:18.649Z,6.70
2023-02-04T23:54:05.341Z,6.90
2023-02-04T23:56:52.362Z,7.90
2023-02-04T23:59:42.109Z,7.10
